Time;durP1;ratioP1;P1;durP2;ratioP2;P2;SDS_P1;SDS_P2;PMS_P1;PMS_P2;Temp;Humidity;BMP_temperature;BMP_pressure;BME280_temperature;BME280_humidity;BME280_pressure;Samples;Min_cycle;Max_cycle;Signal;HPM_P1;HPM_P2
2021/04/07 00:01:53;;;;;;;46.30;19.98;;;;;;;-2.04;70.83;97413.59;5016050;28;20473;-74
2021/04/07 00:04:19;;;;;;;65.07;24.13;;;;;;;-2.04;70.46;97411.72;5009690;28;20432;-74
2021/04/07 00:06:44;;;;;;;48.83;19.35;;;;;;;-2.01;70.30;97419.28;5019616;28;20042;-74
2021/04/07 00:09:11;;;;;;;48.40;18.20;;;;;;;-2.00;70.25;97410.16;5049262;28;20028;-74
2021/04/07 00:11:36;;;;;;;50.97;20.80;;;;;;;-2.02;70.21;97406.91;5115773;28;20035;-74
2021/04/07 00:14:06;;;;;;;87.43;30.05;;;;;;;-2.02;70.25;97412.28;5018198;28;20033;-74
2021/04/07 00:16:31;;;;;;;116.15;35.90;;;;;;;-2.03;70.10;97418.72;5013109;28;20029;-74
2021/04/07 00:18:56;;;;;;;78.70;24.33;;;;;;;-2.04;70.11;97414.41;5012946;28;20030;-74
2021/04/07 00:21:22;;;;;;;54.58;19.88;;;;;;;-2.05;70.12;97415.47;5098778;28;20069;-75
2021/04/07 00:23:48;;;;;;;44.42;18.38;;;;;;;-2.06;69.71;97418.38;4995326;28;20037;-74
2021/04/07 00:26:13;;;;;;;38.08;16.23;;;;;;;-2.06;70.29;97421.91;5100587;28;20028;-75
2021/04/07 00:28:39;;;;;;;39.20;16.48;;;;;;;-2.09;70.39;97422.38;5076299;28;20388;-76
2021/04/07 00:31:04;;;;;;;58.90;20.13;;;;;;;-2.10;70.25;97426.13;4995770;28;20069;-76
2021/04/07 00:33:29;;;;;;;62.63;22.75;;;;;;;-2.12;69.79;97422.84;5012902;28;20034;-75
2021/04/07 00:35:55;;;;;;;101.28;28.02;;;;;;;-2.14;70.19;97422.28;4995481;28;20031;-75
2021/04/07 00:38:20;;;;;;;91.72;26.90;;;;;;;-2.14;69.56;97424.97;4995512;28;20045;-75
2021/04/07 00:40:46;;;;;;;67.80;21.35;;;;;;;-2.20;69.89;97429.41;5019569;28;20068;-75
2021/04/07 00:43:11;;;;;;;53.03;19.25;;;;;;;-2.23;69.75;97431.75;5012965;28;20505;-75
2021/04/07 00:45:37;;;;;;;44.70;17.70;;;;;;;-2.30;70.06;97426.53;5029578;28;20104;-75
2021/04/07 00:48:03;;;;;;;43.38;16.70;;;;;;;-2.33;70.46;97429.69;5064075;28;20039;-75
2021/04/07 00:50:29;;;;;;;46.38;18.17;;;;;;;-2.35;70.06;97419.19;5109779;28;20072;-75
2021/04/07 00:52:55;;;;;;;43.50;17.65;;;;;;;-2.38;70.11;97413.47;5012899;28;20025;-75
2021/04/07 00:55:29;;;;;;;74.50;23.88;;;;;;;-2.38;70.24;97416.16;5012891;28;20521;-75
2021/04/07 00:57:56;;;;;;;106.88;27.95;;;;;;;-2.42;69.88;97418.50;5047400;28;20424;-75
2021/04/07 01:00:22;;;;;;;71.78;21.00;;;;;;;-2.40;70.22;97422.59;5110707;28;20030;-75
2021/04/07 01:02:52;;;;;;;53.10;17.83;;;;;;;-2.42;70.60;97431.91;5012843;28;20026;-75
2021/04/07 01:05:17;;;;;;;60.85;18.45;;;;;;;-2.45;70.24;97430.53;5012628;28;20520;-75
2021/04/07 01:07:43;;;;;;;53.30;19.35;;;;;;;-2.42;70.20;97429.22;5012678;28;20101;-75
2021/04/07 01:10:10;;;;;;;62.45;23.67;;;;;;;-2.44;70.49;97439.41;5062141;28;20039;-75
2021/04/07 01:12:36;;;;;;;62.67;21.92;;;;;;;-2.45;69.99;97438.59;5079549;28;20022;-74
2021/04/07 01:15:04;;;;;;;40.95;17.60;;;;;;;-2.46;70.23;97442.34;5011857;28;20025;-75
2021/04/07 01:17:29;;;;;;;26.83;12.88;;;;;;;-2.45;70.57;97441.28;5109152;28;20526;-75
2021/04/07 01:19:55;;;;;;;28.45;13.82;;;;;;;-2.41;70.31;97446.97;5076227;28;20030;-75
2021/04/07 01:22:22;;;;;;;31.38;15.43;;;;;;;-2.41;70.54;97447.81;5010641;28;20488;-75
2021/04/07 01:24:48;;;;;;;30.83;15.13;;;;;;;-2.37;70.48;97439.28;5011592;28;20128;-75
2021/04/07 01:27:15;;;;;;;33.20;14.02;;;;;;;-2.37;70.39;97445.44;5013105;28;20033;-75
2021/04/07 01:29:41;;;;;;;29.10;13.52;;;;;;;-2.38;70.71;97445.72;5017668;28;20130;-75
2021/04/07 01:32:07;;;;;;;50.45;20.60;;;;;;;-2.40;70.52;97445.94;5010712;28;20104;-75
2021/04/07 01:34:33;;;;;;;52.60;22.25;;;;;;;-2.43;70.45;97441.84;5012974;28;20113;-75
2021/04/07 01:37:00;;;;;;;54.30;20.95;;;;;;;-2.45;70.18;97438.59;5026055;28;20036;-75
2021/04/07 01:39:29;;;;;;;36.35;15.57;;;;;;;-2.48;70.23;97449.00;5032698;28;20016;-74
2021/04/07 01:41:54;;;;;;;33.78;15.45;;;;;;;-2.51;70.35;97447.59;5020109;28;20492;-75
2021/04/07 01:44:22;;;;;;;30.90;14.50;;;;;;;-2.52;70.97;97447.84;5012811;28;20026;-75
2021/04/07 01:46:48;;;;;;;31.30;15.48;;;;;;;-2.54;70.97;97448.06;5010819;28;20097;-74
2021/04/07 01:49:15;;;;;;;34.25;15.43;;;;;;;-2.53;70.85;97457.75;4993039;28;20022;-75
2021/04/07 01:51:41;;;;;;;26.88;13.40;;;;;;;-2.51;70.81;97455.66;5021057;28;20104;-75
2021/04/07 01:54:08;;;;;;;28.55;14.07;;;;;;;-2.48;70.81;97446.31;5013287;28;20560;-75
2021/04/07 01:56:46;;;;;;;32.75;14.98;;;;;;;-2.47;71.00;97448.75;5010380;28;20101;-75
2021/04/07 01:59:11;;;;;;;33.72;15.15;;;;;;;-2.40;71.02;97456.66;5008288;28;20038;-75
2021/04/07 02:01:37;;;;;;;29.83;14.48;;;;;;;-2.36;70.99;97454.34;5009385;28;20033;-75
2021/04/07 02:04:03;;;;;;;30.13;14.25;;;;;;;-2.35;70.83;97454.09;5015427;28;20033;-75
2021/04/07 02:06:28;;;;;;;23.67;12.63;;;;;;;-2.36;70.65;97448.97;5012162;28;20046;-75
2021/04/07 02:08:54;;;;;;;29.38;14.80;;;;;;;-2.36;70.58;97454.34;5010127;28;20370;-75
2021/04/07 02:11:20;;;;;;;31.67;14.48;;;;;;;-2.34;70.93;97457.59;5010269;28;20022;-76
2021/04/07 02:13:46;;;;;;;31.10;14.98;;;;;;;-2.33;70.57;97451.19;5010090;28;20493;-75
2021/04/07 02:16:13;;;;;;;30.95;15.63;;;;;;;-2.34;70.37;97460.28;5010217;28;20030;-75
2021/04/07 02:18:40;;;;;;;37.20;17.40;;;;;;;-2.36;70.20;97457.81;5010129;28;20102;-75
2021/04/07 02:21:06;;;;;;;34.53;15.43;;;;;;;-2.37;70.32;97461.56;5010163;28;20572;-76
2021/04/07 02:23:32;;;;;;;27.52;13.48;;;;;;;-2.40;70.03;97464.72;5010070;28;20497;-75
2021/04/07 02:25:57;;;;;;;29.65;13.43;;;;;;;-2.41;70.74;97466.59;5009978;28;20402;-75
2021/04/07 02:28:23;;;;;;;30.33;13.60;;;;;;;-2.43;70.39;97463.34;5009276;28;20026;-76
2021/04/07 02:30:48;;;;;;;35.13;18.23;;;;;;;-2.45;70.42;97465.44;5007528;28;20389;-75
2021/04/07 02:33:14;;;;;;;44.55;19.85;;;;;;;-2.44;70.00;97467.06;5009663;28;20021;-75
2021/04/07 02:35:39;;;;;;;45.03;18.67;;;;;;;-2.46;70.37;97471.88;5009411;28;20031;-75
2021/04/07 02:38:07;;;;;;;31.00;14.55;;;;;;;-2.48;70.26;97473.97;5009313;28;20462;-75
2021/04/07 02:40:33;;;;;;;36.25;16.30;;;;;;;-2.48;70.31;97471.28;5009363;28;20103;-75
2021/04/07 02:42:58;;;;;;;33.92;15.35;;;;;;;-2.49;69.83;97472.34;5009486;28;20035;-75
2021/04/07 02:45:24;;;;;;;32.15;15.70;;;;;;;-2.50;70.04;97475.28;5009127;28;20028;-75
2021/04/07 02:47:49;;;;;;;30.23;14.23;;;;;;;-2.52;70.10;97480.88;5009908;28;20045;-75
2021/04/07 02:50:14;;;;;;;32.75;14.90;;;;;;;-2.57;70.22;97476.22;5010547;28;20055;-75
2021/04/07 02:52:40;;;;;;;38.83;19.77;;;;;;;-2.59;70.44;97469.44;5010583;28;20034;-75
2021/04/07 02:55:06;;;;;;;27.83;14.43;;;;;;;-2.62;70.37;97480.63;5010548;28;20030;-76
2021/04/07 02:57:31;;;;;;;32.75;15.70;;;;;;;-2.66;70.32;97480.28;5010371;28;20516;-75
2021/04/07 02:59:56;;;;;;;40.47;16.83;;;;;;;-2.65;70.12;97486.50;5010244;28;20105;-75
2021/04/07 03:02:22;;;;;;;36.88;15.85;;;;;;;-2.67;70.77;97475.97;5059064;28;20102;-75
2021/04/07 03:04:47;;;;;;;33.90;15.27;;;;;;;-2.67;70.79;97481.34;5113181;28;20467;-76
2021/04/07 03:07:12;;;;;;;30.80;15.13;;;;;;;-2.64;70.34;97482.72;5053627;28;20022;-75
2021/04/07 03:09:38;;;;;;;34.05;16.88;;;;;;;-2.62;70.53;97486.00;5029857;28;20415;-75
2021/04/07 03:12:03;;;;;;;33.50;16.77;;;;;;;-2.57;70.17;97491.47;5029926;28;20025;-75
2021/04/07 03:14:29;;;;;;;32.50;16.30;;;;;;;-2.54;70.77;97491.03;5029968;28;20026;-75
2021/04/07 03:16:54;;;;;;;31.52;14.60;;;;;;;-2.48;70.56;97494.66;5030110;28;20022;-76
2021/04/07 03:19:19;;;;;;;28.48;13.70;;;;;;;-2.44;71.25;97485.03;5069513;28;20371;-75
2021/04/07 03:21:45;;;;;;;34.83;16.83;;;;;;;-2.41;71.06;97493.47;5113105;28;20031;-75
2021/04/07 03:24:10;;;;;;;30.45;14.88;;;;;;;-2.35;70.63;97497.06;5113064;28;20019;-75
2021/04/07 03:26:36;;;;;;;32.55;15.40;;;;;;;-2.31;70.94;97492.06;5113369;28;20493;-75
2021/04/07 03:29:01;;;;;;;28.15;14.20;;;;;;;-2.22;70.78;97498.66;5113173;28;20032;-75
2021/04/07 03:31:26;;;;;;;30.27;14.18;;;;;;;-2.17;70.90;97512.22;5113122;28;20043;-75
2021/04/07 03:33:52;;;;;;;34.47;16.35;;;;;;;-2.12;70.63;97508.81;5112995;28;20522;-75
2021/04/07 03:36:17;;;;;;;35.33;15.35;;;;;;;-2.07;70.43;97518.84;5113026;28;20090;-75
2021/04/07 03:38:43;;;;;;;38.13;16.33;;;;;;;-2.04;70.83;97516.53;5112382;28;20103;-75
2021/04/07 03:41:08;;;;;;;47.60;18.52;;;;;;;-2.01;70.98;97517.91;5112644;28;20019;-75
2021/04/07 03:43:33;;;;;;;47.55;18.38;;;;;;;-1.99;70.67;97515.78;5112857;28;20030;-76
2021/04/07 03:45:59;;;;;;;53.42;21.80;;;;;;;-1.96;70.58;97520.69;5112735;28;20028;-75
2021/04/07 03:48:27;;;;;;;113.85;30.10;;;;;;;-1.93;70.71;97525.59;5112860;28;20023;-75
2021/04/07 03:50:53;;;;;;;53.40;21.02;;;;;;;-1.86;70.52;97536.19;5112769;28;20110;-75
2021/04/07 03:53:19;;;;;;;46.88;17.88;;;;;;;-1.84;70.41;97532.25;5112706;28;20058;-75
2021/04/07 03:55:46;;;;;;;45.30;18.48;;;;;;;-1.78;70.21;97533.16;5058282;28;20022;-75
2021/04/07 03:58:12;;;;;;;184.15;39.30;;;;;;;-1.70;70.30;97545.38;4994097;28;20428;-75
2021/04/07 04:00:38;;;;;;;123.70;29.05;;;;;;;-1.67;70.31;97539.53;5009592;28;20025;-75
2021/04/07 04:03:03;;;;;;;177.93;38.10;;;;;;;-1.62;70.19;97542.31;5012649;28;20026;-75
2021/04/07 04:05:29;;;;;;;150.40;33.97;;;;;;;-1.56;70.06;97538.69;5029124;28;20401;-75
2021/04/07 04:07:54;;;;;;;124.05;30.75;;;;;;;-1.53;70.10;97545.44;5029235;28;20063;-75
2021/04/07 04:10:20;;;;;;;70.95;23.25;;;;;;;-1.50;70.05;97547.63;5025907;28;20033;-76
2021/04/07 04:12:46;;;;;;;48.05;20.80;;;;;;;-1.44;69.91;97548.56;5009201;28;20102;-78
2021/04/07 04:15:13;;;;;;;92.05;28.90;;;;;;;-1.43;69.70;97545.63;5008725;28;20030;-77
2021/04/07 04:17:40;;;;;;;222.32;47.65;;;;;;;-1.38;69.69;97548.41;4991643;28;20033;-77
2021/04/07 04:20:06;;;;;;;160.10;37.42;;;;;;;-1.33;69.48;97545.00;5009442;28;20026;-77
2021/04/07 04:22:33;;;;;;;83.93;23.30;;;;;;;-1.29;69.37;97551.53;5009510;28;20472;-77
2021/04/07 04:24:58;;;;;;;93.85;28.13;;;;;;;-1.27;68.84;97548.59;5008954;28;20022;-77
2021/04/07 04:27:24;;;;;;;177.40;39.03;;;;;;;-1.28;69.00;97557.75;4993941;28;20359;-76
2021/04/07 04:29:49;;;;;;;121.72;32.70;;;;;;;-1.31;68.96;97556.31;4996487;28;20471;-77
2021/04/07 04:32:14;;;;;;;114.43;29.95;;;;;;;-1.36;69.12;97559.75;5004799;28;20038;-75
2021/04/07 04:34:40;;;;;;;112.57;32.33;;;;;;;-1.40;69.16;97558.59;5009351;28;20026;-74
2021/04/07 04:37:05;;;;;;;82.88;27.02;;;;;;;-1.43;68.91;97564.47;4992394;28;20496;-75
2021/04/07 04:39:31;;;;;;;80.30;26.73;;;;;;;-1.46;68.81;97567.63;4989512;28;20117;-75
2021/04/07 04:41:57;;;;;;;51.72;23.30;;;;;;;-1.50;69.22;97567.31;4989897;28;20108;-74
2021/04/07 04:44:22;;;;;;;96.25;31.58;;;;;;;-1.49;68.99;97570.78;4990734;28;20458;-74
2021/04/07 04:46:47;;;;;;;64.18;24.88;;;;;;;-1.46;68.83;97573.00;4990046;28;20031;-75
2021/04/07 04:49:13;;;;;;;104.22;32.88;;;;;;;-1.43;68.97;97575.22;4989523;28;20038;-75
2021/04/07 04:51:39;;;;;;;63.05;26.60;;;;;;;-1.42;68.92;97576.84;5004688;28;20041;-75
2021/04/07 04:54:04;;;;;;;53.50;22.98;;;;;;;-1.39;69.25;97580.91;5012581;28;20101;-74
2021/04/07 04:56:30;;;;;;;52.08;23.10;;;;;;;-1.39;69.23;97575.53;5012199;28;20351;-75
2021/04/07 04:58:55;;;;;;;84.70;29.45;;;;;;;-1.39;69.37;97579.06;5010847;28;20567;-75
2021/04/07 05:01:21;;;;;;;119.40;37.33;;;;;;;-1.37;68.92;97592.25;5007179;28;20035;-74
2021/04/07 05:03:46;;;;;;;78.68;28.35;;;;;;;-1.36;69.35;97592.03;5007500;28;20036;-75
2021/04/07 05:06:11;;;;;;;53.25;22.88;;;;;;;-1.35;69.09;97593.66;5010284;28;20054;-77
2021/04/07 05:08:37;;;;;;;58.53;23.30;;;;;;;-1.30;69.20;97595.63;5011684;28;20355;-77
2021/04/07 05:11:02;;;;;;;53.53;23.30;;;;;;;-1.23;69.14;97588.22;5006831;28;20026;-78
2021/04/07 05:13:27;;;;;;;49.53;23.00;;;;;;;-1.17;69.24;97604.47;5088808;28;20035;-78
2021/04/07 05:15:53;;;;;;;46.20;20.65;;;;;;;-1.16;68.79;97606.09;4997380;28;20110;-78
2021/04/07 05:18:19;;;;;;;53.47;23.67;;;;;;;-1.15;68.88;97610.44;5028878;28;20532;-78
2021/04/07 05:20:45;;;;;;;50.00;21.15;;;;;;;-1.14;68.51;97612.06;5032716;28;20031;-78
2021/04/07 05:23:11;;;;;;;55.97;23.13;;;;;;;-1.11;68.86;97604.31;5115362;28;20072;-79
2021/04/07 05:25:37;;;;;;;56.53;24.15;;;;;;;-1.08;68.62;97605.72;5084615;28;20034;-78
2021/04/07 05:28:07;;;;;;;53.88;22.60;;;;;;;-1.04;68.94;97609.56;4992072;28;20028;-78
2021/04/07 05:33:21;;;;;;;60.85;24.05;;;;;;;-0.92;68.92;97617.56;4992335;28;20517;-78
2021/04/07 05:35:47;;;;;;;59.88;24.42;;;;;;;-0.92;68.79;97622.97;4993221;28;20034;-78
2021/04/07 05:38:13;;;;;;;56.33;22.77;;;;;;;-0.93;68.73;97630.19;4992621;28;20431;-77
2021/04/07 05:40:39;;;;;;;74.35;29.10;;;;;;;-0.94;68.54;97623.19;5006129;28;20117;-78
2021/04/07 05:43:04;;;;;;;61.78;26.60;;;;;;;-0.90;68.75;97637.00;5011672;28;20454;-78
2021/04/07 05:45:31;;;;;;;68.15;28.52;;;;;;;-0.84;68.49;97635.19;5011676;28;20030;-78
2021/04/07 05:47:56;;;;;;;59.47;24.88;;;;;;;-0.82;68.88;97644.69;5010318;28;20049;-78
2021/04/07 05:50:22;;;;;;;58.38;24.55;;;;;;;-0.77;68.63;97642.06;5006339;28;20475;-77
2021/04/07 05:52:51;;;;;;;55.45;21.80;;;;;;;-0.71;69.01;97644.84;4992018;28;20555;-77
2021/04/07 05:55:18;;;;;;;51.88;20.23;;;;;;;-0.69;68.79;97654.31;4992073;28;20026;-78
2021/04/07 05:57:43;;;;;;;61.47;24.75;;;;;;;-0.66;68.76;97650.31;5000001;28;20026;-77
2021/04/07 06:00:10;;;;;;;68.00;24.08;;;;;;;-0.61;69.01;97653.09;5009536;28;20026;-78
2021/04/07 06:02:36;;;;;;;59.80;25.33;;;;;;;-0.60;68.83;97652.84;4991963;28;20121;-77
2021/04/07 06:05:02;;;;;;;63.08;25.83;;;;;;;-0.55;69.17;97649.44;4991697;28;20138;-77
2021/04/07 06:07:27;;;;;;;43.92;19.27;;;;;;;-0.51;69.04;97650.59;5003030;28;20466;-77
2021/04/07 06:09:52;;;;;;;42.00;17.85;;;;;;;-0.42;69.07;97653.69;5011204;28;20493;-78
2021/04/07 06:12:18;;;;;;;32.00;14.40;;;;;;;-0.38;68.97;97651.31;5011439;28;20108;-79
2021/04/07 06:14:43;;;;;;;37.63;19.75;;;;;;;-0.29;69.26;97652.53;5021611;28;20038;-76
2021/04/07 06:17:08;;;;;;;25.52;14.95;;;;;;;-0.26;68.87;97649.34;4997172;28;20030;-75
2021/04/07 06:19:34;;;;;;;25.25;12.63;;;;;;;-0.19;68.81;97647.31;5011184;28;20110;-75
2021/04/07 06:21:59;;;;;;;25.75;14.00;;;;;;;-0.08;68.82;97652.84;5010657;28;20029;-76
2021/04/07 06:24:25;;;;;;;21.02;9.68;;;;;;;0.01;68.56;97645.97;5040903;28;20037;-76
2021/04/07 06:26:50;;;;;;;19.35;11.13;;;;;;;0.10;68.57;97643.69;5010732;28;20064;-76
2021/04/07 06:29:15;;;;;;;21.45;11.02;;;;;;;0.19;68.37;97644.91;5014291;28;20033;-76
2021/04/07 06:31:41;;;;;;;26.63;12.90;;;;;;;0.26;68.16;97639.31;5010617;28;20042;-75
2021/04/07 06:34:06;;;;;;;26.30;12.57;;;;;;;0.41;68.31;97644.88;4991480;28;20026;-77
2021/04/07 06:36:32;;;;;;;31.50;14.45;;;;;;;0.51;67.78;97654.19;5010714;28;20033;-77
2021/04/07 06:38:57;;;;;;;26.73;12.98;;;;;;;0.55;67.74;97658.84;5010375;28;20064;-76
2021/04/07 06:41:22;;;;;;;18.50;9.13;;;;;;;0.58;67.06;97655.66;5006295;28;20062;-75
2021/04/07 06:43:50;;;;;;;18.88;9.73;;;;;;;0.67;67.07;97668.69;5010914;28;20030;-75
2021/04/07 06:46:20;;;;;;;26.20;12.13;;;;;;;0.77;66.78;97651.81;5010622;28;20030;-76
2021/04/07 06:48:47;;;;;;;24.15;10.50;;;;;;;0.91;67.11;97655.72;5010666;28;20055;-75
2021/04/07 06:51:14;;;;;;;21.27;10.95;;;;;;;0.97;66.49;97660.13;4992309;28;20052;-76
2021/04/07 06:53:42;;;;;;;22.33;12.65;;;;;;;1.01;65.68;97653.16;5009095;28;20478;-76
2021/04/07 06:56:08;;;;;;;23.55;12.32;;;;;;;1.11;66.03;97654.34;5009044;28;20026;-76
2021/04/07 06:58:34;;;;;;;24.95;13.60;;;;;;;1.17;66.09;97662.22;5009151;28;20081;-76
2021/04/07 07:00:59;;;;;;;21.23;10.93;;;;;;;1.18;65.03;97652.25;5010256;28;20528;-76
2021/04/07 07:03:25;;;;;;;22.42;11.48;;;;;;;1.16;64.23;97659.78;4992756;28;20037;-76
2021/04/07 07:05:54;;;;;;;17.17;8.82;;;;;;;1.21;64.40;97664.41;4992609;28;20078;-76
2021/04/07 07:08:20;;;;;;;15.10;8.07;;;;;;;1.27;64.14;97656.09;5010353;28;20026;-76
2021/04/07 07:10:48;;;;;;;17.95;9.38;;;;;;;1.39;64.37;97661.38;5009974;28;20434;-76
2021/04/07 07:13:18;;;;;;;12.63;6.38;;;;;;;1.48;62.73;97657.09;5009872;28;20030;-76
2021/04/07 07:15:44;;;;;;;13.90;6.30;;;;;;;1.52;61.68;97668.25;4992692;28;20071;-75
2021/04/07 07:18:09;;;;;;;12.52;6.75;;;;;;;1.47;60.78;97660.88;5010100;28;20038;-76
2021/04/07 07:20:41;;;;;;;11.70;6.50;;;;;;;1.53;61.36;97669.03;5009999;28;20029;-76
2021/04/07 07:23:06;;;;;;;10.60;6.03;;;;;;;1.62;61.45;97668.34;5010225;28;20030;-76
2021/04/07 07:25:33;;;;;;;14.82;8.20;;;;;;;1.75;61.63;97680.59;5010058;28;20052;-76
2021/04/07 07:28:02;;;;;;;12.63;5.93;;;;;;;1.86;61.04;97673.38;5010103;28;20037;-76
2021/04/07 07:30:43;;;;;;;11.02;5.55;;;;;;;1.83;58.93;97675.78;5010123;28;20032;-76
2021/04/07 07:33:22;;;;;;;10.48;4.75;;;;;;;1.77;58.41;97678.44;5010213;28;20383;-76
2021/04/07 07:35:50;;;;;;;14.90;7.23;;;;;;;1.81;58.91;97670.63;4994036;28;20036;-76
2021/04/07 07:38:26;;;;;;;17.00;8.25;;;;;;;1.92;58.86;97687.75;5010174;28;20083;-76
2021/04/07 07:41:02;;;;;;;18.83;9.23;;;;;;;2.05;59.02;97692.72;5009851;28;20121;-76
2021/04/07 07:43:28;;;;;;;17.90;7.97;;;;;;;2.21;58.28;97690.94;5009780;28;20529;-76
2021/04/07 07:45:53;;;;;;;9.23;5.07;;;;;;;2.34;57.52;97686.16;5009725;28;20113;-76
2021/04/07 07:48:21;;;;;;;14.23;6.50;;;;;;;2.37;56.86;97697.25;5009896;28;20465;-76
2021/04/07 07:50:47;;;;;;;16.58;7.75;;;;;;;2.41;56.03;97705.69;4992200;28;20025;-75
2021/04/07 07:53:18;;;;;;;8.95;4.30;;;;;;;2.41;55.63;97704.84;5009501;28;20030;-76
2021/04/07 07:55:45;;;;;;;7.05;4.05;;;;;;;2.37;55.25;97705.38;5009747;28;20451;-76
2021/04/07 07:58:11;;;;;;;11.75;5.68;;;;;;;2.39;55.46;97702.41;5009601;28;20030;-76
2021/04/07 08:00:36;;;;;;;8.35;3.90;;;;;;;2.41;55.02;97711.09;5009530;28;20041;-76
2021/04/07 08:03:06;;;;;;;9.52;4.75;;;;;;;2.38;55.11;97715.13;4992008;28;20022;-76
2021/04/07 08:05:32;;;;;;;8.68;4.65;;;;;;;2.46;55.54;97713.00;5009584;28;20410;-76
2021/04/07 08:07:57;;;;;;;9.57;5.68;;;;;;;2.57;55.86;97713.88;5009824;28;20594;-76
2021/04/07 08:10:23;;;;;;;9.35;4.28;;;;;;;2.58;54.09;97716.31;5009357;28;20473;-76
2021/04/07 08:12:48;;;;;;;6.22;3.92;;;;;;;2.62;54.28;97720.16;5009542;28;20049;-76
2021/04/07 08:15:15;;;;;;;14.00;5.70;;;;;;;2.72;54.93;97710.41;5009119;28;20040;-76
2021/04/07 08:17:40;;;;;;;12.88;7.40;;;;;;;2.75;53.17;97721.56;5009147;28;20130;-76
2021/04/07 08:20:07;;;;;;;7.05;3.95;;;;;;;2.74;52.75;97719.09;5009156;28;20034;-76
2021/04/07 08:22:38;;;;;;;8.50;4.38;;;;;;;2.76;53.28;97715.06;5009228;28;20022;-76
2021/04/07 08:25:06;;;;;;;28.23;10.60;;;;;;;2.77;54.05;97719.41;5009434;28;20026;-76
2021/04/07 08:27:36;;;;;;;23.00;8.27;;;;;;;2.77;53.91;97715.88;5012698;28;20034;-76
2021/04/07 08:30:06;;;;;;;8.23;4.15;;;;;;;2.78;53.10;97723.75;5012659;28;20042;-76
2021/04/07 08:32:31;;;;;;;11.93;5.30;;;;;;;2.76;52.64;97716.94;5012481;28;20490;-76
2021/04/07 08:34:58;;;;;;;9.40;6.18;;;;;;;2.74;53.08;97728.06;5012594;28;20028;-75
2021/04/07 08:37:32;;;;;;;20.63;8.70;;;;;;;2.75;52.86;97724.28;5012648;28;20109;-76
2021/04/07 08:40:12;;;;;;;9.23;5.60;;;;;;;2.76;51.00;97730.47;5012610;28;20029;-76
2021/04/07 08:42:39;;;;;;;;;;;;;;;2.75;51.45;97726.16;5012861;28;20441;-78
2021/04/07 08:45:14;;;;;;;13.18;5.88;;;;;;;2.75;51.66;97734.25;5012298;28;19920;-77
2021/04/07 08:48:02;;;;;;;9.57;4.15;;;;;;;2.75;52.28;97718.03;5012639;28;20030;-77
2021/04/07 08:50:31;;;;;;;13.55;4.82;;;;;;;2.74;51.10;97721.81;5012820;28;20045;-76
2021/04/07 08:52:56;;;;;;;18.67;5.25;;;;;;;2.70;50.44;97736.94;5012514;28;20018;-76
2021/04/07 08:55:27;;;;;;;6.13;3.45;;;;;;;2.64;50.24;97733.41;5012495;28;20393;-76
2021/04/07 08:58:23;;;;;;;15.95;6.05;;;;;;;2.74;50.71;97730.75;5012034;28;20512;-75
2021/04/07 09:00:53;;;;;;;10.68;4.82;;;;;;;2.97;49.87;97721.38;5016127;28;20045;-74
2021/04/07 09:03:22;;;;;;;9.65;4.38;;;;;;;3.13;50.44;97719.53;4994671;28;20095;-75
2021/04/07 09:05:51;;;;;;;12.02;5.35;;;;;;;3.31;50.29;97720.13;5007730;28;20046;-74
2021/04/07 09:08:24;;;;;;;7.93;3.95;;;;;;;3.34;49.84;97732.34;5011474;28;20516;-74
2021/04/07 09:10:53;;;;;;;13.40;5.25;;;;;;;3.37;48.35;97743.44;5010008;28;20079;-74
2021/04/07 09:13:33;;;;;;;10.45;3.90;;;;;;;3.32;48.01;97735.31;5010338;28;20366;-75
2021/04/07 09:16:05;;;;;;;8.10;3.72;;;;;;;3.30;48.89;97737.47;5011595;28;20105;-74
2021/04/07 09:18:39;;;;;;;7.95;4.40;;;;;;;3.31;49.30;97735.59;5011399;28;20130;-74
2021/04/07 09:21:08;;;;;;;23.33;6.28;;;;;;;3.34;49.16;97732.34;5010142;28;20125;-75
2021/04/07 09:23:35;;;;;;;16.30;4.97;;;;;;;3.31;49.22;97736.38;5011266;28;20480;-74
2021/04/07 09:26:17;;;;;;;18.23;5.40;;;;;;;3.27;48.20;97740.72;5010026;28;20049;-74
2021/04/07 09:28:46;;;;;;;8.90;4.15;;;;;;;3.23;48.31;97743.16;5011557;28;20037;-74
2021/04/07 09:31:18;;;;;;;5.57;3.22;;;;;;;3.26;47.94;97741.81;5011042;28;20029;-76
2021/04/07 09:33:48;;;;;;;5.95;3.60;;;;;;;3.53;47.32;97733.47;5011167;28;20034;-77
2021/04/07 09:36:15;;;;;;;7.65;4.10;;;;;;;3.75;47.83;97734.31;5010950;28;20033;-77
2021/04/07 09:38:50;;;;;;;7.57;3.80;;;;;;;3.83;47.76;97736.50;5011090;28;20478;-76
2021/04/07 09:41:23;;;;;;;34.35;9.68;;;;;;;3.88;47.42;97750.06;5011263;28;20477;-76
2021/04/07 09:43:49;;;;;;;6.75;3.28;;;;;;;3.87;47.93;97772.84;5011295;28;20025;-75
2021/04/07 09:46:15;;;;;;;11.30;6.72;;;;;;;3.41;50.67;97771.66;5011070;28;20490;-76
2021/04/07 09:48:42;;;;;;;9.45;4.53;;;;;;;2.95;53.14;97787.72;4993147;28;20164;-76
2021/04/07 09:51:23;;;;;;;7.78;4.63;;;;;;;2.37;55.92;97802.78;5010674;28;20033;-76
2021/04/07 09:53:49;;;;;;;7.35;4.18;;;;;;;2.01;58.22;97810.59;5009120;28;20068;-76
2021/04/07 09:56:14;;;;;;;8.80;5.45;;;;;;;1.72;59.82;97808.19;5010730;28;20033;-75
2021/04/07 09:58:48;;;;;;;8.20;4.38;;;;;;;1.63;59.70;97807.00;5011216;28;20026;-77
2021/04/07 10:01:18;;;;;;;11.45;5.25;;;;;;;1.85;60.14;97808.81;5011612;28;20026;-77
2021/04/07 10:03:51;;;;;;;8.55;5.15;;;;;;;2.11;60.72;97806.38;5011501;28;20030;-77
2021/04/07 10:06:18;;;;;;;10.88;7.38;;;;;;;2.27;61.40;97802.69;5010698;28;20038;-76
2021/04/07 10:08:44;;;;;;;7.97;5.13;;;;;;;2.36;60.84;97809.28;5010467;28;20028;-77
2021/04/07 10:11:09;;;;;;;7.72;4.35;;;;;;;2.50;60.59;97806.94;5010350;28;20377;-77
2021/04/07 10:13:35;;;;;;;5.32;3.40;;;;;;;2.58;60.55;97802.97;5010476;28;20037;-76
2021/04/07 10:16:12;;;;;;;6.45;3.42;;;;;;;2.67;58.84;97797.88;5010493;28;20014;-76
2021/04/07 10:18:38;;;;;;;4.78;2.33;;;;;;;2.80;59.98;97785.75;5008414;28;20054;-76
2021/04/07 10:21:14;;;;;;;5.65;2.30;;;;;;;2.80;57.67;97796.59;5010238;28;20040;-76
2021/04/07 10:23:40;;;;;;;4.45;2.15;;;;;;;2.85;56.80;97787.69;4993044;28;20691;-76
2021/04/07 10:26:06;;;;;;;4.80;2.25;;;;;;;2.81;56.00;97788.22;5010380;28;20029;-76
2021/04/07 10:28:31;;;;;;;8.90;3.33;;;;;;;2.93;56.70;97792.59;5010647;28;20022;-76
2021/04/07 10:30:57;;;;;;;8.20;3.08;;;;;;;3.13;56.64;97791.88;5010325;28;20025;-76
2021/04/07 10:33:26;;;;;;;7.70;2.80;;;;;;;3.41;56.39;97804.19;5010447;28;20371;-76
2021/04/07 10:35:59;;;;;;;7.03;3.30;;;;;;;3.53;53.96;97803.97;5008170;28;20029;-76
2021/04/07 10:38:35;;;;;;;8.20;3.97;;;;;;;3.57;54.44;97806.97;5010735;28;20052;-76
2021/04/07 10:41:05;;;;;;;8.68;4.53;;;;;;;3.25;57.73;97825.00;5010171;28;20118;-76
2021/04/07 10:43:32;;;;;;;11.07;6.90;;;;;;;2.86;58.24;97825.34;5007830;28;20026;-77
2021/04/07 10:46:03;;;;;;;10.13;5.38;;;;;;;2.66;59.12;97834.13;5009869;28;20473;-76
2021/04/07 10:48:29;;;;;;;8.35;4.45;;;;;;;2.49;60.08;97835.09;5007501;28;20366;-77
2021/04/07 10:50:56;;;;;;;12.02;5.28;;;;;;;2.21;61.45;97836.22;5010095;28;20117;-76
2021/04/07 10:53:37;;;;;;;14.80;6.88;;;;;;;1.90;61.40;97834.03;5009926;28;20078;-76
2021/04/07 10:56:22;;;;;;;;;;;;;;;1.78;62.21;97827.97;5009358;28;20026;-76
2021/04/07 10:59:03;;;;;;;10.98;5.35;;;;;;;1.68;62.89;97831.38;5009158;28;19952;-76
2021/04/07 11:01:37;;;;;;;10.32;5.45;;;;;;;1.66;62.92;97820.00;5009849;28;20101;-77
2021/04/07 11:04:35;;;;;;;10.95;4.93;;;;;;;1.70;64.18;97823.81;5009669;28;20087;-77
2021/04/07 11:07:02;;;;;;;6.97;3.90;;;;;;;1.92;63.79;97818.38;5013224;28;20042;-76
2021/04/07 11:09:32;;;;;;;6.68;4.07;;;;;;;2.15;63.33;97821.03;5009623;28;20466;-77
2021/04/07 11:11:59;;;;;;;8.43;3.80;;;;;;;2.43;63.22;97808.25;5009954;28;20403;-77
2021/04/07 11:14:25;;;;;;;12.30;5.20;;;;;;;2.74;62.65;97813.88;5009467;28;20024;-76
2021/04/07 11:17:00;;;;;;;20.50;7.03;;;;;;;2.97;61.44;97804.53;5009532;28;20105;-77
2021/04/07 11:19:37;;;;;;;7.15;3.88;;;;;;;3.15;57.78;97811.41;5009616;28;20037;-76
2021/04/07 11:22:06;;;;;;;16.95;6.82;;;;;;;3.31;58.41;97801.44;5009412;28;20493;-77
2021/04/07 11:24:32;;;;;;;16.67;6.20;;;;;;;3.51;56.95;97797.97;5007250;28;20485;-77
2021/04/07 11:26:58;;;;;;;7.40;4.95;;;;;;;3.80;56.15;97802.97;5009280;28;20022;-77
2021/04/07 11:29:24;;;;;;;20.67;14.73;;;;;;;3.97;56.38;97789.16;5009454;28;20040;-76